Time;durP1;ratioP1;P1;durP2;ratioP2;P2;SDS_P1;SDS_P2;PMS_P1;PMS_P2;Temp;Humidity;BMP_temperature;BMP_pressure;BME280_temperature;BME280_humidity;BME280_pressure;Samples;Min_cycle;Max_cycle;Signal;HPM_P1;HPM_P2
2023/08/06 00:00:51;;;;;;;5.68;5.18;;;17.40;99.90;;;-141.84;76.10;20864.72;5063928;28;20299;-65
2023/08/06 00:03:19;;;;;;;6.03;5.45;;;17.30;99.90;;;-141.84;75.59;20868.78;5062521;28;20224;-65
2023/08/06 00:05:48;;;;;;;5.70;4.93;;;17.40;99.90;;;-141.84;75.29;20907.41;5062148;28;20289;-65
2023/08/06 00:08:17;;;;;;;5.60;4.97;;;17.40;99.90;;;-141.84;75.75;20872.84;5056010;28;20228;-64
2023/08/06 00:10:45;;;;;;;5.95;5.25;;;17.40;99.90;;;-141.84;75.76;20842.34;5063371;28;20242;-65
2023/08/06 00:13:13;;;;;;;5.78;5.20;;;17.40;99.90;;;-141.84;75.61;20860.66;5062611;28;20769;-64
2023/08/06 00:15:42;;;;;;;5.07;4.63;;;17.30;99.90;;;-141.84;75.88;20860.66;5063607;28;20250;-65
2023/08/06 00:18:10;;;;;;;6.00;5.40;;;17.40;99.90;;;-141.84;75.73;20880.97;5062343;28;20229;-65
2023/08/06 00:20:41;;;;;;;5.78;4.57;;;17.30;99.90;;;-141.84;76.35;20826.09;5055061;28;20525;-66
2023/08/06 00:23:09;;;;;;;5.93;4.80;;;17.30;99.90;;;-141.84;76.90;20775.25;5062906;28;20781;-67
2023/08/06 00:25:39;;;;;;;6.13;5.10;;;17.30;99.90;;;-141.84;77.34;20813.88;5062943;28;20228;-65
2023/08/06 00:28:07;;;;;;;5.43;4.90;;;17.20;99.90;;;-141.84;77.39;20826.09;5062420;28;20200;-66
2023/08/06 00:30:35;;;;;;;5.50;5.00;;;17.10;99.90;;;-141.84;77.09;20817.94;5055964;28;20270;-66
2023/08/06 00:33:04;;;;;;;5.63;5.05;;;17.20;99.90;;;-141.84;76.96;20844.38;5062050;28;20309;-65
2023/08/06 00:35:32;;;;;;;5.65;4.90;;;17.20;99.90;;;-141.84;76.97;20820.00;5062709;28;20733;-65
2023/08/06 00:38:00;;;;;;;8.05;5.60;;;17.20;99.90;;;-141.84;77.02;20807.78;5062663;28;20239;-65
2023/08/06 00:40:30;;;;;;;6.03;5.25;;;17.20;99.90;;;-141.84;76.27;20820.00;5055274;28;20319;-66
2023/08/06 00:42:59;;;;;;;5.25;4.75;;;17.20;99.90;;;-141.84;76.83;20809.81;5063045;28;20299;-65
2023/08/06 00:45:29;;;;;;;5.85;5.00;;;17.20;99.90;;;-141.84;77.21;20826.09;5062832;28;20296;-65
2023/08/06 00:47:58;;;;;;;6.00;5.30;;;17.20;99.90;;;-141.84;77.02;20832.19;5062089;28;20610;-65
2023/08/06 00:50:27;;;;;;;5.53;5.03;;;17.10;99.90;;;-141.84;76.88;20834.22;5054626;28;20315;-66
2023/08/06 00:52:55;;;;;;;5.93;5.28;;;17.20;99.90;;;-141.84;77.07;20817.94;5062224;28;20395;-65
2023/08/06 00:55:24;;;;;;;6.10;5.50;;;17.20;99.90;;;-141.84;77.04;20787.47;5045122;28;20256;-65
2023/08/06 00:57:55;;;;;;;5.82;5.22;;;17.20;99.90;;;-141.84;76.74;20830.16;5042720;28;20237;-64
2023/08/06 01:00:26;;;;;;;6.45;5.75;;;17.20;99.90;;;-141.84;77.05;20815.91;5034909;28;20283;-65
2023/08/06 01:02:55;;;;;;;5.70;4.97;;;17.10;99.90;;;-141.84;76.97;20826.09;5041686;28;20236;-65
2023/08/06 01:05:24;;;;;;;5.40;4.90;;;17.20;99.90;;;-141.84;77.58;20793.56;5041967;28;20237;-65
2023/08/06 01:08:21;;;;;;;6.45;5.30;;;17.20;99.90;;;-141.84;77.58;20793.56;5042222;28;20300;-65
2023/08/06 01:11:06;;;;;;;6.45;5.35;;;17.10;99.90;;;-141.84;77.62;20817.94;5042318;28;20681;-65
2023/08/06 01:13:44;;;;;;;7.40;5.57;;;17.20;99.90;;;-141.84;77.48;20807.78;5042259;28;20270;-65
2023/08/06 01:16:16;;;;;;;6.80;5.65;;;17.10;99.90;;;-141.84;76.86;20811.84;5051980;28;20218;-64
2023/08/06 01:18:49;;;;;;;6.10;5.28;;;17.20;99.90;;;-141.84;77.03;20836.25;5065724;28;20211;-65
2023/08/06 01:21:19;;;;;;;5.93;5.32;;;17.20;99.90;;;-141.84;77.24;20795.59;5066136;28;20274;-65
2023/08/06 01:23:49;;;;;;;5.95;5.30;;;17.20;99.90;;;-141.84;77.18;20846.41;5061570;28;20268;-65
2023/08/06 01:26:34;;;;;;;7.22;5.88;;;17.20;99.90;;;-141.84;76.83;20811.84;5038461;28;20654;-63
2023/08/06 01:29:11;;;;;;;6.03;5.40;;;17.20;99.90;;;-141.84;77.21;20799.66;5062689;28;20734;-65
2023/08/06 01:31:44;;;;;;;6.22;5.00;;;17.20;99.90;;;-141.84;77.67;20783.41;5065767;28;20281;-66
2023/08/06 01:34:21;;;;;;;5.88;5.35;;;17.20;99.90;;;-141.84;77.83;20785.44;5065399;28;20645;-65
2023/08/06 01:36:52;;;;;;;6.20;5.57;;;17.20;99.90;;;-141.84;77.76;20805.75;5066480;28;20694;-65
2023/08/06 01:39:20;;;;;;;6.90;6.00;;;17.20;99.90;;;-141.84;77.84;20822.03;5065656;28;20228;-65
2023/08/06 01:41:49;;;;;;;6.47;5.70;;;17.10;99.90;;;-141.84;77.99;20773.22;5065668;28;20321;-65
2023/08/06 01:44:18;;;;;;;6.20;5.60;;;17.20;99.90;;;-141.84;77.68;20801.69;5058325;28;20608;-64
2023/08/06 01:46:46;;;;;;;6.22;5.63;;;17.20;99.90;;;-141.84;77.16;20832.19;5065446;28;20270;-64
2023/08/06 01:49:15;;;;;;;6.00;5.43;;;17.10;99.90;;;-141.84;77.39;20801.69;5064912;28;20213;-65
2023/08/06 01:51:43;;;;;;;7.15;5.45;;;17.20;99.90;;;-141.84;77.70;20789.50;5065841;28;20260;-65
2023/08/06 01:54:12;;;;;;;6.15;5.53;;;17.20;99.90;;;-141.84;77.34;20803.72;5058013;28;20332;-65
2023/08/06 01:56:40;;;;;;;6.53;6.00;;;17.20;99.90;;;-141.84;77.32;20834.22;5041560;28;20233;-66
2023/08/06 01:59:08;;;;;;;6.18;5.60;;;17.10;99.90;;;-141.84;77.30;20846.41;5058999;28;20332;-64
2023/08/06 02:01:37;;;;;;;6.05;5.55;;;17.20;99.90;;;-141.84;78.01;20785.44;5065038;28;20751;-65
2023/08/06 02:04:05;;;;;;;7.28;5.70;;;17.20;99.90;;;-141.84;77.72;20797.63;5065360;28;20201;-65
2023/08/06 02:06:33;;;;;;;5.85;5.35;;;17.20;99.90;;;-141.84;77.56;20817.94;5058362;28;20236;-65
2023/08/06 02:09:01;;;;;;;6.78;5.78;;;17.10;99.90;;;-141.84;78.16;20761.03;5064869;28;20590;-65
2023/08/06 02:11:31;;;;;;;5.82;5.28;;;17.10;99.90;;;-141.84;78.59;20763.06;5065170;28;20658;-65
2023/08/06 02:13:59;;;;;;;5.60;5.10;;;17.10;99.90;;;-141.84;78.78;20767.13;5065023;28;20583;-64
2023/08/06 02:16:27;;;;;;;8.65;5.35;;;17.00;99.90;;;-141.84;79.08;20746.81;5057420;28;20402;-65
2023/08/06 02:18:55;;;;;;;5.93;5.43;;;17.00;99.90;;;-141.84;78.89;20752.91;5065119;28;20597;-65
2023/08/06 02:21:23;;;;;;;6.80;6.07;;;17.00;99.90;;;-141.84;78.68;20767.13;5064923;28;20259;-64
2023/08/06 02:23:51;;;;;;;6.05;5.45;;;17.00;99.90;;;-141.84;79.02;20767.13;5064896;28;20252;-65
2023/08/06 02:26:20;;;;;;;6.10;5.53;;;17.00;99.90;;;-141.84;79.03;20752.91;5057620;28;20318;-65
2023/08/06 02:28:49;;;;;;;8.18;5.97;;;16.90;99.90;;;-141.84;78.58;20769.16;5064846;28;20276;-65
2023/08/06 02:31:17;;;;;;;6.93;6.22;;;17.00;99.90;;;-141.84;78.36;20797.63;5064488;28;20598;-65
2023/08/06 02:33:46;;;;;;;8.52;6.18;;;17.00;99.90;;;-141.84;78.41;20746.81;5064836;28;20224;-65
2023/08/06 02:36:14;;;;;;;7.22;6.53;;;17.00;99.90;;;-141.84;77.99;20765.09;5063537;28;20667;-65
2023/08/06 02:38:42;;;;;;;7.03;6.32;;;16.90;99.90;;;-141.84;77.85;20811.84;5053642;28;20407;-65
2023/08/06 02:41:10;;;;;;;7.15;6.45;;;17.00;99.90;;;-141.84;78.13;20787.47;5044663;28;20272;-64
2023/08/06 02:43:39;;;;;;;6.55;5.78;;;17.00;99.90;;;-141.84;78.68;20736.63;5044782;28;20316;-65
2023/08/06 02:46:08;;;;;;;5.93;5.43;;;17.00;99.90;;;-141.84;79.65;20730.53;5044039;28;20210;-65
2023/08/06 02:48:36;;;;;;;6.40;5.80;;;16.90;99.90;;;-141.84;80.23;20718.34;5042067;28;20216;-65
2023/08/06 02:51:04;;;;;;;8.23;6.07;;;16.90;99.90;;;-141.84;79.91;20732.56;5063978;28;20663;-65
2023/08/06 02:53:34;;;;;;;6.93;6.22;;;16.90;99.90;;;-141.84;80.25;20712.25;5064400;28;20586;-64
2023/08/06 02:56:02;;;;;;;6.18;5.63;;;16.80;99.90;;;-141.84;80.46;20740.69;5064260;28;20316;-64
2023/08/06 02:58:30;;;;;;;6.40;5.75;;;16.80;99.90;;;-141.84;80.45;20718.34;5056497;28;20324;-65
2023/08/06 03:01:03;;;;;;;7.38;6.35;;;16.80;99.90;;;-141.84;80.70;20742.75;5064900;28;20239;-65
2023/08/06 03:03:34;;;;;;;6.88;6.28;;;16.80;99.90;;;-141.84;79.77;20734.59;5064440;28;20278;-65
2023/08/06 03:06:03;;;;;;;6.60;6.00;;;16.80;99.90;;;-141.84;79.85;20730.53;5064268;28;20646;-65
2023/08/06 03:08:31;;;;;;;6.68;6.07;;;16.80;99.90;;;-141.84;79.95;20716.31;5056692;28;20331;-64
2023/08/06 03:10:59;;;;;;;6.88;6.28;;;16.90;99.90;;;-141.84;79.87;20744.78;5063838;28;20861;-65
2023/08/06 03:13:28;;;;;;;6.63;6.07;;;16.80;99.90;;;-141.84;79.35;20750.88;5063544;28;20259;-65
2023/08/06 03:15:58;;;;;;;8.25;6.72;;;16.90;99.90;;;-141.84;79.47;20767.13;5064479;28;20248;-66
2023/08/06 03:18:27;;;;;;;6.80;5.95;;;16.80;99.90;;;-141.84;79.82;20742.75;5056646;28;20233;-64
2023/08/06 03:20:56;;;;;;;6.38;5.78;;;16.80;99.90;;;-141.84;80.36;20750.88;5063308;28;20224;-65
2023/08/06 03:23:25;;;;;;;6.95;6.25;;;16.80;99.90;;;-141.84;79.60;20765.09;5063213;28;20720;-65
2023/08/06 03:25:53;;;;;;;6.75;6.15;;;16.80;99.90;;;-141.84;79.18;20769.16;5063471;28;20630;-64
2023/08/06 03:28:22;;;;;;;6.90;6.30;;;16.90;99.90;;;-141.84;79.49;20759.00;5045220;28;20574;-65
2023/08/06 03:31:00;;;;;;;6.88;6.28;;;16.90;99.90;;;-141.84;79.49;20756.97;5057188;28;20676;-65
2023/08/06 03:33:29;;;;;;;6.75;6.05;;;16.90;99.90;;;-141.84;80.12;20746.81;5063956;28;20301;-64
2023/08/06 03:35:58;;;;;;;7.97;6.25;;;16.90;99.90;;;-141.84;80.54;20738.66;5058689;28;20228;-65
2023/08/06 03:38:27;;;;;;;7.05;6.35;;;16.80;99.90;;;-141.84;80.37;20716.31;5055432;28;20535;-65
2023/08/06 03:40:55;;;;;;;7.38;6.60;;;16.80;99.90;;;-141.84;80.18;20744.78;5061622;28;20259;-65
2023/08/06 03:43:24;;;;;;;6.85;6.10;;;16.80;99.90;;;-141.84;80.53;20763.06;5063313;28;20704;-65
2023/08/06 03:45:52;;;;;;;7.13;6.53;;;16.80;99.90;;;-141.84;80.83;20771.19;5063428;28;20240;-65
2023/08/06 03:48:20;;;;;;;6.63;6.03;;;16.70;99.90;;;-141.84;81.27;20708.19;5055786;28;20287;-64
2023/08/06 03:50:48;;;;;;;7.65;7.05;;;16.80;99.90;;;-141.84;81.01;20712.25;5062757;28;20256;-65
2023/08/06 03:53:18;;;;;;;7.82;7.13;;;16.70;99.90;;;-141.84;80.98;20706.16;5063105;28;20301;-64
2023/08/06 03:55:46;;;;;;;7.90;6.78;;;16.80;99.90;;;-141.84;80.67;20712.25;5062835;28;20343;-66
2023/08/06 03:58:14;;;;;;;8.82;7.10;;;16.80;99.90;;;-141.84;80.72;20730.53;5061405;28;20235;-65
2023/08/06 04:00:42;;;;;;;7.80;6.20;;;16.80;99.90;;;-141.84;80.87;20687.84;5063066;28;20216;-65
2023/08/06 04:03:10;;;;;;;7.50;6.80;;;16.80;99.90;;;-141.84;81.26;20716.31;5063549;28;20252;-65
2023/08/06 04:05:39;;;;;;;7.40;6.72;;;16.70;99.90;;;-141.84;81.08;20714.28;5062928;28;20240;-66
2023/08/06 04:08:07;;;;;;;7.75;6.97;;;16.70;99.90;;;-141.84;80.53;20746.81;5063353;28;20742;-66
2023/08/06 04:10:36;;;;;;;7.78;6.95;;;16.80;99.90;;;-141.84;80.32;20756.97;5055342;28;20323;-65
2023/08/06 04:13:05;;;;;;;7.40;6.65;;;16.80;99.90;;;-141.84;80.46;20746.81;5062265;28;20208;-65
2023/08/06 04:15:35;;;;;;;7.45;6.32;;;16.80;99.90;;;-141.84;80.04;20730.53;5063549;28;20302;-65
2023/08/06 04:18:03;;;;;;;7.70;6.18;;;16.80;99.90;;;-141.84;81.18;20691.91;5062844;28;20236;-64
2023/08/06 04:20:31;;;;;;;8.43;7.60;;;16.80;99.90;;;-141.84;81.71;20693.94;5051485;28;20232;-65
2023/08/06 04:23:00;;;;;;;6.80;6.10;;;16.70;99.90;;;-141.84;82.10;20706.16;5062935;28;20232;-64
2023/08/06 04:25:28;;;;;;;7.07;6.47;;;16.70;99.90;;;-141.84;81.50;20706.16;5062984;28;20578;-65
2023/08/06 04:27:57;;;;;;;8.18;7.00;;;16.80;99.90;;;-141.84;81.30;20728.50;5062972;28;20205;-64
2023/08/06 04:30:25;;;;;;;7.25;6.63;;;16.80;99.90;;;-141.84;80.94;20748.84;5053416;28;20311;-65
2023/08/06 04:32:54;;;;;;;7.32;6.00;;;16.80;99.90;;;-141.84;81.96;20693.94;5042475;28;20233;-64
2023/08/06 04:35:22;;;;;;;7.40;6.70;;;16.80;99.90;;;-141.84;81.81;20691.91;5049137;28;20233;-64
2023/08/06 04:37:50;;;;;;;7.20;6.50;;;16.70;99.90;;;-141.84;82.39;20754.94;5062355;28;20232;-65
2023/08/06 04:40:18;;;;;;;7.13;6.53;;;16.70;99.90;;;-141.84;82.20;20712.25;5054836;28;20295;-65
2023/08/06 04:42:46;;;;;;;7.40;6.13;;;16.80;99.90;;;-141.84;81.63;20732.56;5063185;28;20236;-67
2023/08/06 04:45:16;;;;;;;8.02;6.43;;;16.80;99.90;;;-141.84;81.13;20763.06;5062060;28;20263;-65
2023/08/06 04:47:44;;;;;;;7.68;6.95;;;16.80;99.90;;;-141.84;81.28;20769.16;5062397;28;20255;-65
2023/08/06 04:50:13;;;;;;;8.60;6.70;;;16.80;99.90;;;-141.84;81.34;20732.56;5062745;28;20735;-65
2023/08/06 04:52:41;;;;;;;7.45;6.70;;;17.00;99.90;;;-141.84;81.71;20734.59;5058771;28;20251;-65
2023/08/06 04:55:09;;;;;;;7.80;7.10;;;16.90;99.90;;;-141.84;81.11;20724.44;5062332;28;20673;-64
2023/08/06 04:57:37;;;;;;;7.32;6.72;;;16.90;99.90;;;-141.84;80.63;20763.06;5062583;28;20212;-65
2023/08/06 05:00:08;;;;;;;7.05;6.25;;;16.90;99.90;;;-141.84;80.76;20740.69;5042170;28;20640;-65
2023/08/06 05:02:38;;;;;;;5.70;5.20;;;16.90;99.90;;;-141.84;80.38;20779.31;5034717;28;20236;-65
2023/08/06 05:05:07;;;;;;;5.28;4.78;;;16.90;99.90;;;-141.84;79.68;20791.53;5042270;28;20261;-65
2023/08/06 05:07:35;;;;;;;7.03;4.28;;;16.90;99.90;;;-141.84;79.37;20750.88;5042258;28;20264;-65
2023/08/06 05:10:04;;;;;;;4.32;3.92;;;16.90;99.90;;;-141.84;78.82;20730.53;5051359;28;20296;-65
2023/08/06 05:12:32;;;;;;;4.63;3.70;;;16.90;99.90;;;-141.84;77.74;20767.13;5040229;28;20209;-65
2023/08/06 05:15:00;;;;;;;4.07;3.47;;;16.90;99.90;;;-141.84;76.30;20785.44;5048552;28;20588;-65
2023/08/06 05:17:29;;;;;;;6.85;3.00;;;16.90;99.90;;;-141.84;75.89;20805.75;5052454;28;20221;-64
2023/08/06 05:19:58;;;;;;;3.95;3.20;;;16.90;99.90;;;-141.84;76.46;20765.09;5053721;28;20232;-65
2023/08/06 05:22:26;;;;;;;3.22;2.92;;;16.90;99.90;;;-141.84;76.98;20761.03;5045884;28;20690;-65
2023/08/06 05:24:55;;;;;;;3.90;3.50;;;16.90;99.90;;;-141.84;74.83;20824.06;5062879;28;20299;-65
2023/08/06 05:27:23;;;;;;;3.95;3.42;;;16.90;99.90;;;-141.84;74.50;20803.72;5062092;28;20256;-65
2023/08/06 05:29:55;;;;;;;3.50;3.25;;;16.90;99.90;;;-141.84;74.89;20809.81;5061652;28;20282;-65
2023/08/06 05:32:24;;;;;;;4.22;3.42;;;16.90;99.90;;;-141.84;74.96;20795.59;5034252;28;20670;-65
2023/08/06 05:34:52;;;;;;;3.58;3.28;;;17.00;99.90;;;-141.84;74.28;20850.47;5044568;28;20604;-65
2023/08/06 05:37:22;;;;;;;3.55;3.25;;;17.10;99.90;;;-141.84;75.23;20834.22;5061545;28;20616;-65
2023/08/06 05:39:50;;;;;;;3.50;3.20;;;17.00;99.90;;;-141.84;75.25;20809.81;5062225;28;20258;-65
2023/08/06 05:42:18;;;;;;;3.22;3.00;;;17.00;99.90;;;-141.84;75.52;20767.13;5054170;28;20731;-65
2023/08/06 05:44:46;;;;;;;3.47;3.17;;;17.00;99.90;;;-141.84;74.73;20832.19;5061800;28;20224;-66
2023/08/06 05:47:15;;;;;;;4.75;3.50;;;16.90;99.90;;;-141.84;73.63;20854.53;5061726;28;20235;-65
2023/08/06 05:49:43;;;;;;;4.72;3.13;;;17.00;99.90;;;-141.84;73.94;20836.25;5061911;28;20305;-65
2023/08/06 05:52:11;;;;;;;2.70;2.50;;;17.00;99.90;;;-141.84;74.17;20858.59;5061611;28;20291;-65
2023/08/06 05:54:41;;;;;;;2.97;2.70;;;17.00;99.90;;;-141.84;75.15;20797.63;5038048;28;20326;-65
2023/08/06 05:57:09;;;;;;;3.28;2.50;;;17.00;99.90;;;-141.84;73.86;20830.16;5041933;28;20229;-65
2023/08/06 05:59:37;;;;;;;2.88;2.47;;;17.10;99.90;;;-141.84;74.45;20854.53;5058239;28;20252;-65
2023/08/06 06:02:06;;;;;;;3.25;2.70;;;17.10;99.90;;;-141.84;74.51;20840.31;5062132;28;20232;-65
2023/08/06 06:04:35;;;;;;;2.80;2.60;;;17.10;99.90;;;-141.84;75.08;20822.03;5057400;28;20327;-65
2023/08/06 06:07:03;;;;;;;2.80;2.60;;;17.10;99.90;;;-141.84;73.53;20913.50;5065404;28;20236;-65
2023/08/06 06:09:31;;;;;;;2.80;2.40;;;17.20;99.90;;;-141.84;73.29;20895.19;5065628;28;20205;-65
2023/08/06 06:12:01;;;;;;;2.70;2.50;;;17.20;99.90;;;-141.84;73.99;20854.53;5065583;28;20323;-65
2023/08/06 06:14:29;;;;;;;2.72;2.53;;;17.20;99.90;;;-141.84;72.95;20919.59;5057072;28;20248;-65
2023/08/06 06:16:57;;;;;;;2.33;2.13;;;17.30;99.90;;;-141.84;73.13;20874.88;5064960;28;20286;-65
2023/08/06 06:19:25;;;;;;;2.45;2.05;;;17.40;99.90;;;-141.84;72.41;20939.94;5064990;28;20803;-65
2023/08/06 06:21:57;;;;;;;2.60;2.40;;;17.40;99.90;;;-141.84;72.13;20952.13;5065254;28;20570;-64
2023/08/06 06:24:26;;;;;;;3.15;2.50;;;17.50;99.90;;;-141.84;72.32;20958.22;5040522;28;20234;-65
2023/08/06 06:26:54;;;;;;;2.38;2.17;;;17.50;99.90;;;-141.84;71.83;20966.34;5050935;28;20262;-64
2023/08/06 06:29:23;;;;;;;3.63;2.28;;;17.60;99.90;;;-141.84;71.94;20996.84;5065055;28;20314;-65
2023/08/06 06:31:51;;;;;;;2.15;2.05;;;17.60;99.90;;;-141.84;70.99;21017.19;5064375;28;20738;-64
2023/08/06 06:34:20;;;;;;;4.18;2.00;;;17.70;99.90;;;-141.84;71.43;21015.16;5057318;28;20235;-64
2023/08/06 06:36:48;;;;;;;2.83;2.40;;;17.80;99.90;;;-141.84;70.02;21049.72;5065265;28;20252;-65
2023/08/06 06:39:18;;;;;;;2.35;2.15;;;18.00;99.90;;;-141.84;69.30;21053.78;5065415;28;20332;-65
2023/08/06 06:41:46;;;;;;;2.85;2.58;;;17.90;99.90;;;-141.84;70.55;21102.56;5064903;28;20318;-66
2023/08/06 06:44:15;;;;;;;2.92;2.67;;;18.00;99.90;;;-141.84;69.50;21102.56;5062758;28;20259;-65
2023/08/06 06:46:45;;;;;;;2.83;2.63;;;18.10;99.90;;;-141.84;69.22;21078.16;5064691;28;20252;-65
2023/08/06 06:49:13;;;;;;;3.50;3.20;;;18.10;99.90;;;-141.84;69.38;21070.03;5064641;28;20303;-65
2023/08/06 06:51:41;;;;;;;3.55;3.17;;;18.10;99.90;;;-141.84;70.20;21070.03;5064735;28;20267;-65
2023/08/06 06:54:09;;;;;;;3.28;2.97;;;18.10;99.90;;;-141.84;69.88;21106.63;5049760;28;20229;-65
2023/08/06 06:56:38;;;;;;;3.45;3.15;;;18.10;99.90;;;-141.84;69.78;21110.69;5037273;28;20323;-65
2023/08/06 06:59:06;;;;;;;3.67;2.60;;;18.10;99.90;;;-141.84;69.62;21108.66;5056661;28;20327;-64
2023/08/06 07:01:34;;;;;;;4.28;2.97;;;18.10;99.90;;;-141.84;69.04;21122.91;5064577;28;20311;-66
2023/08/06 07:04:04;;;;;;;3.03;2.38;;;18.20;99.90;;;-141.84;68.83;21151.34;5064624;28;20212;-66
2023/08/06 07:06:33;;;;;;;3.28;2.80;;;18.30;99.90;;;-141.84;68.91;21112.72;5056832;28;20652;-65
2023/08/06 07:09:01;;;;;;;2.60;2.40;;;18.30;99.90;;;-141.84;68.73;21153.41;5064257;28;20321;-66
2023/08/06 07:11:29;;;;;;;2.50;2.30;;;18.40;99.90;;;-141.84;67.35;21171.69;5064730;28;20740;-65
2023/08/06 07:13:59;;;;;;;3.40;3.05;;;18.40;99.90;;;-141.84;67.21;21192.03;5063672;28;20256;-65
2023/08/06 07:16:29;;;;;;;2.63;2.40;;;18.40;99.90;;;-141.84;67.25;21190.00;5056787;28;20251;-65
2023/08/06 07:19:00;;;;;;;3.22;2.30;;;18.50;99.90;;;-141.84;67.40;21232.69;5064704;28;20741;-65
2023/08/06 07:21:29;;;;;;;2.67;2.47;;;18.60;99.90;;;-141.84;68.36;21147.28;5064441;28;20302;-65
2023/08/06 07:23:59;;;;;;;6.15;3.38;;;18.50;99.90;;;-141.84;66.79;21228.63;5062664;28;20252;-65
2023/08/06 07:26:27;;;;;;;2.92;2.67;;;18.70;99.90;;;-141.84;67.04;21236.75;5056414;28;20300;-66
2023/08/06 07:28:55;;;;;;;3.55;2.53;;;18.70;99.90;;;-141.84;66.62;21253.00;5063466;28;20783;-65
2023/08/06 07:31:24;;;;;;;3.90;3.20;;;18.70;99.90;;;-141.84;66.82;21269.28;5063067;28;20251;-65
2023/08/06 07:33:52;;;;;;;3.40;3.10;;;18.80;99.90;;;-141.84;66.52;21285.53;5064045;28;20212;-66
2023/08/06 07:36:21;;;;;;;3.60;2.88;;;18.90;99.90;;;-141.84;66.79;21265.22;5055744;28;20228;-66
2023/08/06 07:38:55;;;;;;;2.92;2.72;;;19.00;99.90;;;-141.84;67.38;21275.38;5063446;28;20319;-65
2023/08/06 07:41:24;;;;;;;3.30;2.72;;;19.10;99.90;;;-141.84;65.24;21342.47;5062956;28;20790;-65
2023/08/06 07:43:52;;;;;;;3.20;2.50;;;19.10;99.90;;;-141.84;65.55;21287.56;5063615;28;20340;-65
2023/08/06 07:46:20;;;;;;;3.47;2.50;;;19.10;99.90;;;-141.84;66.78;21293.69;5055347;28;22881;-64
2023/08/06 07:48:48;;;;;;;2.72;2.35;;;19.20;99.90;;;-141.84;65.72;21379.06;5063754;28;20209;-64
2023/08/06 07:51:16;;;;;;;2.05;1.95;;;19.20;99.90;;;-141.84;67.17;21281.47;5062774;28;20319;-65
2023/08/06 07:53:46;;;;;;;2.60;2.30;;;19.20;99.90;;;-141.84;67.35;21232.69;5062825;28;20316;-65
2023/08/06 07:56:15;;;;;;;2.38;2.17;;;18.90;99.90;;;-141.84;66.34;21330.28;5062223;28;20319;-64
2023/08/06 07:58:43;;;;;;;2.53;2.33;;;18.90;99.90;;;-141.84;66.53;21275.38;5063290;28;20731;-65
2023/08/06 08:01:12;;;;;;;3.03;2.05;;;18.90;99.90;;;-141.84;66.75;21326.22;5063156;28;20208;-65
2023/08/06 08:03:40;;;;;;;2.40;2.20;;;18.90;99.90;;;-141.84;66.95;21293.69;5063674;28;20208;-66
2023/08/06 08:06:08;;;;;;;2.30;2.10;;;18.90;99.90;;;-141.84;66.07;21297.75;5062211;28;20232;-66
2023/08/06 08:08:38;;;;;;;2.47;2.28;;;19.00;99.90;;;-141.84;65.75;21314.00;5055625;28;20264;-65
2023/08/06 08:11:07;;;;;;;2.30;2.10;;;19.10;99.90;;;-141.84;65.13;21372.97;5062929;28;20319;-66
2023/08/06 08:13:36;;;;;;;2.30;2.10;;;19.30;99.90;;;-141.84;63.19;21458.38;5063369;28;20220;-66
2023/08/06 08:16:05;;;;;;;2.50;2.30;;;19.50;99.90;;;-141.84;62.70;21488.88;5062723;28;20247;-65
2023/08/06 08:18:33;;;;;;;2.55;2.35;;;19.50;99.90;;;-141.84;61.82;21531.56;5055637;28;20219;-66
2023/08/06 08:21:01;;;;;;;2.33;2.13;;;19.60;99.90;;;-141.84;62.30;21531.56;5041849;28;20672;-66
2023/08/06 08:23:31;;;;;;;2.80;2.33;;;19.70;99.90;;;-141.84;61.80;21560.03;5051728;28;20220;-65
2023/08/06 08:25:59;;;;;;;3.35;2.17;;;19.70;99.90;;;-141.84;62.39;21511.22;5062262;28;20667;-67
2023/08/06 08:28:28;;;;;;;2.40;2.20;;;19.80;99.90;;;-141.84;61.36;21560.03;5048211;28;20228;-65
2023/08/06 08:30:57;;;;;;;2.53;2.22;;;19.70;99.90;;;-141.84;60.80;21539.69;5062784;28;20284;-64
2023/08/06 08:33:25;;;;;;;2.72;2.00;;;19.80;99.90;;;-141.84;61.83;21543.75;5063054;28;20297;-65
2023/08/06 08:35:54;;;;;;;2.65;2.45;;;19.80;99.90;;;-141.84;61.36;21616.97;5061715;28;20236;-66
2023/08/06 08:38:22;;;;;;;3.38;2.20;;;19.80;99.90;;;-141.84;60.75;21619.00;5054607;28;20319;-66
2023/08/06 08:40:54;;;;;;;2.10;1.90;;;20.00;99.90;;;-141.84;61.13;21667.78;5062476;28;20347;-68
2023/08/06 08:43:24;;;;;;;3.67;2.05;;;20.30;99.90;;;-141.84;58.87;21806.06;5062179;28;20263;-65
2023/08/06 08:45:55;;;;;;;2.35;2.15;;;20.50;99.90;;;-141.84;57.85;21828.44;5063420;28;20291;-64
2023/08/06 08:48:26;;;;;;;2.55;2.00;;;20.70;99.90;;;-141.84;58.47;21818.25;5055191;28;20228;-64
2023/08/06 08:50:56;;;;;;;2.67;2.40;;;20.80;99.90;;;-141.84;58.52;21814.19;5061322;28;20228;-66
2023/08/06 08:53:27;;;;;;;3.25;2.90;;;21.00;99.90;;;-141.84;58.19;21901.63;5055252;28;20253;-67
2023/08/06 08:55:56;;;;;;;2.90;2.70;;;21.10;99.90;;;-141.84;57.54;21869.09;5054320;28;20745;-66
2023/08/06 08:58:24;;;;;;;3.10;2.28;;;21.10;99.90;;;-141.84;56.99;21942.31;5040802;28;20309;-66
2023/08/06 09:00:54;;;;;;;2.45;2.25;;;21.20;99.90;;;-141.84;56.37;21985.00;5050131;28;20575;-65
2023/08/06 09:03:23;;;;;;;2.50;2.30;;;21.50;99.90;;;-141.84;56.10;21962.63;5061723;28;20238;-64
2023/08/06 09:05:57;;;;;;;2.83;2.63;;;21.50;99.90;;;-141.84;54.69;22084.66;5054089;28;20240;-66
2023/08/06 09:08:34;;;;;;;2.45;2.25;;;21.50;99.90;;;-141.84;54.66;22064.31;5046563;28;20315;-66
2023/08/06 09:11:04;;;;;;;2.88;2.40;;;21.60;99.90;;;-141.84;55.68;22025.66;5042422;28;20229;-66
2023/08/06 09:13:32;;;;;;;2.10;2.00;;;21.70;99.90;;;-141.84;54.81;22119.22;5049759;28;20248;-66
2023/08/06 09:16:01;;;;;;;2.58;2.38;;;21.80;99.90;;;-141.84;54.25;22098.88;5062336;28;20261;-66
2023/08/06 09:18:31;;;;;;;2.67;2.40;;;21.90;99.90;;;-141.84;54.97;22121.25;5054756;28;20323;-67
2023/08/06 09:21:01;;;;;;;2.70;2.50;;;21.90;99.90;;;-141.84;54.88;22186.31;5041274;28;20756;-65
2023/08/06 09:23:31;;;;;;;2.80;2.20;;;22.20;99.90;;;-141.84;54.57;22190.38;5041806;28;20235;-66
2023/08/06 09:25:59;;;;;;;4.50;2.45;;;22.40;99.90;;;-141.84;54.01;22247.34;5042123;28;20659;-64
2023/08/06 09:28:39;;;;;;;2.70;2.30;;;22.40;99.90;;;-141.84;53.63;22184.28;5052620;28;20240;-66
2023/08/06 09:31:09;;;;;;;3.10;2.88;;;22.30;99.90;;;-141.84;52.41;22253.44;5061307;28;20319;-65
2023/08/06 09:33:39;;;;;;;4.43;3.15;;;22.30;99.90;;;-141.84;51.21;22285.97;5062548;28;20209;-66
2023/08/06 09:36:12;;;;;;;2.92;2.08;;;22.40;99.90;;;-141.84;52.62;22196.50;5061494;28;20256;-65
2023/08/06 09:38:41;;;;;;;3.15;2.50;;;22.30;99.90;;;-141.84;51.88;22190.38;5058886;28;20240;-67
2023/08/06 09:41:10;;;;;;;2.20;2.08;;;22.20;99.90;;;-141.84;51.99;22163.94;5065968;28;20232;-65
2023/08/06 09:43:42;;;;;;;1.98;1.83;;;22.00;99.90;;;-141.84;51.15;22210.72;5065993;28;20233;-65
2023/08/06 09:46:16;;;;;;;2.45;2.25;;;22.00;99.90;;;-141.84;52.14;22172.09;5064873;28;20251;-67
2023/08/06 09:48:47;;;;;;;3.05;1.98;;;22.10;99.90;;;-141.84;51.08;22166.00;5062659;28;20319;-65
2023/08/06 09:51:17;;;;;;;2.17;1.98;;;22.10;99.90;;;-141.84;50.54;22135.47;5055764;28;20302;-66
2023/08/06 09:53:50;;;;;;;2.58;2.38;;;22.00;99.90;;;-141.84;50.95;22245.28;5052475;28;20263;-66
2023/08/06 09:56:19;;;;;;;2.33;1.80;;;22.20;99.90;;;-141.84;50.12;22261.56;5058231;28;20232;-65
2023/08/06 09:58:50;;;;;;;3.88;2.20;;;22.30;99.90;;;-141.84;50.47;22247.34;5055948;28;20793;-65
2023/08/06 10:01:20;;;;;;;2.00;1.80;;;22.40;99.90;;;-141.84;49.91;22318.50;5065560;28;20244;-65
2023/08/06 10:03:51;;;;;;;3.53;2.20;;;22.50;99.90;;;-141.84;49.93;22310.38;5065384;28;20347;-66
2023/08/06 10:06:23;;;;;;;2.22;2.13;;;22.50;99.90;;;-141.84;50.48;22316.47;5056989;28;20236;-66
2023/08/06 10:08:51;;;;;;;2.00;1.90;;;22.60;99.90;;;-141.84;50.92;22316.47;5057723;28;20256;-65
2023/08/06 10:11:23;;;;;;;2.40;2.20;;;22.50;99.90;;;-141.84;49.70;22377.47;5045507;28;20294;-65
2023/08/06 10:13:59;;;;;;;2.13;2.00;;;22.60;99.90;;;-141.84;51.23;22294.09;5054844;28;20264;-65